createdAt,value
2022-11-01T00:01:36.143Z,95444.94
2022-11-01T00:04:03.850Z,95461.00
2022-11-01T00:06:31.410Z,95496.66
2022-11-01T00:08:59.241Z,95467.13
2022-11-01T00:11:26.943Z,95495.94
2022-11-01T00:13:54.676Z,95493.91
2022-11-01T00:16:23.913Z,95495.84
2022-11-01T00:18:51.569Z,95500.63
2022-11-01T00:21:19.415Z,95507.13
2022-11-01T00:23:47.347Z,95501.31
2022-11-01T00:26:18.965Z,95490.75
2022-11-01T00:28:46.960Z,95492.56
2022-11-01T00:31:15.858Z,95497.06
2022-11-01T00:33:44.902Z,95492.66
2022-11-01T00:36:13.168Z,95483.69
2022-11-01T00:38:40.908Z,95487.81
2022-11-01T00:41:08.901Z,95486.78
2022-11-01T00:43:37.741Z,95485.69
2022-11-01T00:46:06.056Z,95478.00
2022-11-01T00:48:33.730Z,95470.47
2022-11-01T00:51:02.648Z,95472.53
2022-11-01T00:53:30.274Z,95469.06
2022-11-01T00:56:01.391Z,95470.44
2022-11-01T00:58:29.142Z,95476.78
2022-11-01T01:00:56.899Z,95478.47
2022-11-01T01:03:25.012Z,95477.50
2022-11-01T01:05:54.747Z,95481.09
2022-11-01T01:08:25.112Z,95471.03
2022-11-01T01:10:53.143Z,95476.03
2022-11-01T01:13:20.967Z,95479.13
2022-11-01T01:15:49.036Z,95469.78
2022-11-01T01:18:17.628Z,95476.28
2022-11-01T01:20:45.456Z,95475.75
2022-11-01T01:23:13.114Z,95474.16
2022-11-01T01:25:43.406Z,95463.03
2022-11-01T01:28:11.479Z,95468.81
2022-11-01T01:30:41.297Z,95464.28
2022-11-01T01:33:09.388Z,95467.31
2022-11-01T01:35:38.434Z,95471.31
2022-11-01T01:38:06.641Z,95461.75
2022-11-01T01:40:34.687Z,95455.56
2022-11-01T01:43:03.888Z,95455.63
2022-11-01T01:45:35.762Z,95453.47
2022-11-01T01:48:12.204Z,95451.84
2022-11-01T01:50:45.173Z,95452.22
2022-11-01T01:53:16.657Z,95449.19
2022-11-01T01:55:50.182Z,95455.09
2022-11-01T01:58:22.832Z,95451.78
2022-11-01T02:00:50.938Z,95439.84
2022-11-01T02:03:18.795Z,95439.06
2022-11-01T02:05:51.379Z,95439.50
2022-11-01T02:08:27.545Z,95439.91
2022-11-01T02:10:57.220Z,95448.50
2022-11-01T02:13:26.303Z,95448.25
2022-11-01T02:16:06.162Z,95445.97
2022-11-01T02:18:41.639Z,95454.56
2022-11-01T02:21:43.127Z,95455.00
2022-11-01T02:24:29.573Z,95451.72
2022-11-01T02:27:13.291Z,95449.88
2022-11-01T02:29:58.091Z,95451.50
2022-11-01T02:32:34.897Z,95451.72
2022-11-01T02:35:13.537Z,95450.22
2022-11-01T02:37:47.709Z,95455.69
2022-11-01T02:40:22.270Z,95452.34
2022-11-01T02:42:56.171Z,95463.47
2022-11-01T02:45:30.544Z,95472.44
2022-11-01T02:48:01.235Z,95471.78
2022-11-01T02:50:33.055Z,95463.84
2022-11-01T02:53:01.198Z,95466.91
2022-11-01T02:55:31.865Z,95464.91
2022-11-01T02:58:02.217Z,95467.94
2022-11-01T03:00:33.029Z,95462.53
2022-11-01T03:03:10.414Z,95459.25
2022-11-01T03:05:46.640Z,95457.72
2022-11-01T03:08:17.969Z,95461.97
2022-11-01T03:10:51.488Z,95459.09
2022-11-01T03:13:29.561Z,95462.09
2022-11-01T03:16:05.993Z,95469.94
2022-11-01T03:18:37.472Z,95469.19
2022-11-01T03:21:15.601Z,95476.38
2022-11-01T03:23:50.898Z,95476.63
2022-11-01T03:26:26.016Z,95485.34
2022-11-01T03:28:57.402Z,95481.91
2022-11-01T03:31:30.021Z,95486.19
2022-11-01T03:34:03.872Z,95484.16
2022-11-01T03:36:34.922Z,95489.81
2022-11-01T03:39:08.062Z,95486.53
2022-11-01T03:41:40.114Z,95497.66
2022-11-01T03:44:08.206Z,95508.25
2022-11-01T03:46:36.218Z,95517.63
2022-11-01T03:49:05.170Z,95509.53
2022-11-01T03:51:32.933Z,95514.06
2022-11-01T03:54:00.782Z,95511.47
2022-11-01T03:56:28.675Z,95517.09
2022-11-01T03:58:56.357Z,95510.06
2022-11-01T04:01:24.106Z,95510.88
2022-11-01T04:03:51.769Z,95506.50
2022-11-01T04:06:20.717Z,95516.53
2022-11-01T04:08:48.281Z,95518.47
2022-11-01T04:11:15.875Z,95515.31
2022-11-01T04:13:44.288Z,95519.72
2022-11-01T04:16:29.627Z,95522.72
2022-11-01T04:19:29.297Z,95535.63
2022-11-01T04:21:58.322Z,95527.91
2022-11-01T04:24:25.886Z,95528.75
2022-11-01T04:26:53.672Z,95533.13
2022-11-01T04:29:21.215Z,95536.84
2022-11-01T04:31:48.809Z,95539.47
2022-11-01T04:34:37.202Z,95536.59
2022-11-01T04:37:06.165Z,95538.00
2022-11-01T04:39:33.768Z,95549.00
2022-11-01T04:42:01.448Z,95550.25
2022-11-01T04:44:29.109Z,95553.81
2022-11-01T04:46:56.715Z,95552.56
2022-11-01T04:49:24.314Z,95555.47
2022-11-01T04:51:51.873Z,95560.97
2022-11-01T04:54:20.987Z,95556.72
2022-11-01T04:56:48.596Z,95556.97
2022-11-01T04:59:16.225Z,95561.38
2022-11-01T05:01:45.145Z,95578.97
2022-11-01T05:04:12.878Z,95567.16
2022-11-01T05:06:40.543Z,95572.63
2022-11-01T05:09:08.119Z,95574.84
2022-11-01T05:11:37.030Z,95580.75
2022-11-01T05:14:04.867Z,95579.94
2022-11-01T05:16:32.497Z,95577.75
2022-11-01T05:19:00.069Z,95579.66
2022-11-01T05:21:27.640Z,95588.84
2022-11-01T05:23:55.236Z,95595.28
2022-11-01T05:26:22.808Z,95596.25
2022-11-01T05:28:51.743Z,95603.81
2022-11-01T05:31:19.354Z,95598.31
2022-11-01T05:33:46.982Z,95600.81
2022-11-01T05:36:14.603Z,95604.66
2022-11-01T05:38:42.194Z,95599.41
2022-11-01T05:41:09.965Z,95608.09
2022-11-01T05:43:37.591Z,95606.19
2022-11-01T05:46:07.518Z,95604.38
2022-11-01T05:48:35.809Z,95610.97
2022-11-01T05:51:03.430Z,95608.53
2022-11-01T05:53:31.090Z,95628.59
2022-11-01T05:55:59.679Z,95627.16
2022-11-01T05:58:30.551Z,95626.03
2022-11-01T06:00:59.614Z,95621.78
2022-11-01T06:03:28.703Z,95629.88
2022-11-01T06:05:56.323Z,95637.06
2022-11-01T06:08:23.919Z,95638.28
2022-11-01T06:10:51.811Z,95635.69
2022-11-01T06:13:19.945Z,95640.50
2022-11-01T06:15:47.520Z,95638.56
2022-11-01T06:18:15.118Z,95638.47
2022-11-01T06:20:44.027Z,95649.84
2022-11-01T06:23:12.487Z,95646.69
2022-11-01T06:25:40.057Z,95657.56
2022-11-01T06:28:07.647Z,95665.28
2022-11-01T06:30:35.336Z,95676.81
2022-11-01T06:33:03.422Z,95676.13
2022-11-01T06:35:31.519Z,95682.75
2022-11-01T06:38:04.278Z,95694.66
2022-11-01T06:40:31.981Z,95700.88
2022-11-01T06:43:03.001Z,95715.03
2022-11-01T06:45:31.227Z,95720.41
2022-11-01T06:47:59.693Z,95715.72
2022-11-01T06:50:27.501Z,95724.25
2022-11-01T06:52:57.297Z,95722.47
2022-11-01T06:55:26.777Z,95724.94
2022-11-01T06:57:55.778Z,95736.22
2022-11-01T07:00:23.575Z,95739.78
2022-11-01T07:02:58.856Z,95733.91
2022-11-01T07:05:26.452Z,95742.28
2022-11-01T07:07:54.397Z,95745.31
2022-11-01T07:10:22.439Z,95758.91
2022-11-01T07:12:51.418Z,95745.72
2022-11-01T07:15:19.176Z,95756.84
2022-11-01T07:17:48.075Z,95769.22
2022-11-01T07:20:15.625Z,95769.75
2022-11-01T07:22:43.273Z,95769.38
2022-11-01T07:25:11.010Z,95771.03
2022-11-01T07:27:39.053Z,95779.84
2022-11-01T07:30:12.067Z,95776.81
2022-11-01T07:32:40.016Z,95788.09
2022-11-01T07:35:08.462Z,95790.03
2022-11-01T07:37:36.700Z,95795.53
2022-11-01T07:40:05.272Z,95801.19
2022-11-01T07:42:32.861Z,95800.19
2022-11-01T07:45:00.450Z,95809.00
2022-11-01T07:47:29.397Z,95810.50
2022-11-01T07:49:56.962Z,95811.88
2022-11-01T07:52:24.571Z,95804.88
2022-11-01T07:54:52.157Z,95811.34
2022-11-01T07:57:19.790Z,95814.06
2022-11-01T07:59:47.397Z,95810.19
2022-11-01T08:02:15.082Z,95812.81
2022-11-01T08:04:44.188Z,95810.97
2022-11-01T08:07:11.875Z,95811.13
2022-11-01T08:09:39.486Z,95802.84
2022-11-01T08:12:07.585Z,95794.25
2022-11-01T08:14:35.233Z,95798.22
2022-11-01T08:17:02.800Z,95805.13
2022-11-01T08:19:30.365Z,95799.59
2022-11-01T08:21:59.864Z,95803.84
2022-11-01T08:24:28.232Z,95792.72
2022-11-01T08:26:55.864Z,95790.34
2022-11-01T08:29:23.455Z,95801.66
2022-11-01T08:31:51.050Z,95797.38
2022-11-01T08:34:18.683Z,95806.06
2022-11-01T08:36:46.258Z,95809.50
2022-11-01T08:39:15.229Z,95821.38
2022-11-01T08:41:42.831Z,95822.03
2022-11-01T08:44:10.647Z,95819.56
2022-11-01T08:46:38.277Z,95829.06
2022-11-01T08:49:05.968Z,95828.13
2022-11-01T08:51:33.569Z,95836.13
2022-11-01T08:54:01.168Z,95828.13
2022-11-01T08:56:30.395Z,95824.91
2022-11-01T08:58:58.873Z,95831.66
2022-11-01T09:01:27.070Z,95837.31
2022-11-01T09:03:57.763Z,95835.47
2022-11-01T09:06:25.797Z,95838.47
2022-11-01T09:08:53.925Z,95831.44
2022-11-01T09:11:22.500Z,95825.41
2022-11-01T09:13:51.968Z,95827.88
2022-11-01T09:16:20.155Z,95825.91
2022-11-01T09:18:47.862Z,95822.47
2022-11-01T09:21:17.049Z,95810.09
2022-11-01T09:23:46.008Z,95809.00
2022-11-01T09:26:14.103Z,95812.13
2022-11-01T09:28:41.904Z,95806.38
2022-11-01T09:31:20.957Z,95812.97
2022-11-01T09:33:49.060Z,95804.28
2022-11-01T09:36:16.976Z,95805.63
2022-11-01T09:38:44.606Z,95796.78
2022-11-01T09:41:24.140Z,95798.16
2022-11-01T09:43:53.755Z,95792.91
2022-11-01T09:46:28.057Z,95786.94
2022-11-01T09:48:57.508Z,95788.28
2022-11-01T09:51:26.416Z,95789.47
2022-11-01T09:53:57.619Z,95806.03
2022-11-01T09:56:30.420Z,95805.72
2022-11-01T09:59:05.737Z,95813.28
2022-11-01T10:01:47.664Z,95821.97
2022-11-01T10:04:39.888Z,95828.28
2022-11-01T10:07:13.739Z,95827.00
2022-11-01T10:09:53.081Z,95837.50
2022-11-01T10:12:34.264Z,95834.38
2022-11-01T10:15:25.990Z,95837.78
2022-11-01T10:17:56.536Z,95820.09
2022-11-01T10:20:28.412Z,95827.00
2022-11-01T10:22:56.980Z,95820.81
2022-11-01T10:25:27.101Z,95819.22
2022-11-01T10:28:04.356Z,95819.41
2022-11-01T10:30:36.621Z,95830.06
2022-11-01T10:33:21.529Z,95822.06
2022-11-01T10:35:54.099Z,95820.47
2022-11-01T10:41:26.779Z,95828.53
2022-11-01T10:43:58.323Z,95817.06
2022-11-01T10:46:30.390Z,95823.81
2022-11-01T10:49:02.689Z,95820.34
2022-11-01T10:51:32.863Z,95814.81
2022-11-01T10:54:04.043Z,95813.19
2022-11-01T10:56:37.329Z,95808.88
2022-11-01T10:59:08.297Z,95813.31
2022-11-01T11:01:42.464Z,95808.59
2022-11-01T11:04:15.967Z,95806.69
2022-11-01T11:06:44.568Z,95811.03
2022-11-01T11:09:22.476Z,95808.09
2022-11-01T11:11:51.500Z,95812.97
2022-11-01T11:14:21.351Z,95802.50
2022-11-01T11:16:51.242Z,95804.13
2022-11-01T11:19:25.145Z,95806.44
2022-11-01T11:21:54.775Z,95808.56
2022-11-01T11:24:25.493Z,95818.44
2022-11-01T11:26:56.855Z,95813.16
2022-11-01T11:29:39.953Z,95815.31
2022-11-01T11:32:14.912Z,95807.44
2022-11-01T11:34:43.998Z,95795.94
2022-11-01T11:37:21.347Z,95799.63
2022-11-01T11:40:17.033Z,95804.56
2022-11-01T11:42:45.969Z,95799.34
2022-11-01T11:45:20.587Z,95797.91
2022-11-01T11:47:48.827Z,95801.31
2022-11-01T11:50:35.092Z,95805.44
2022-11-01T11:53:07.723Z,95817.38
2022-11-01T11:55:46.613Z,95808.38
2022-11-01T11:58:22.500Z,95808.56
2022-11-01T12:00:54.427Z,95802.84
2022-11-01T12:03:22.970Z,95803.69
2022-11-01T12:06:01.278Z,95803.63
2022-11-01T12:08:38.276Z,95802.94
2022-11-01T12:11:06.829Z,95808.56
2022-11-01T12:13:37.328Z,95811.03
2022-11-01T12:16:11.405Z,95811.56
2022-11-01T12:18:47.615Z,95816.50
2022-11-01T12:21:28.999Z,95814.84
2022-11-01T12:24:01.416Z,95814.66
2022-11-01T12:26:32.370Z,95817.41
2022-11-01T12:29:14.384Z,95811.84
2022-11-01T12:31:44.260Z,95815.97
2022-11-01T12:34:20.209Z,95809.06
2022-11-01T12:36:55.286Z,95814.50
2022-11-01T12:39:36.669Z,95819.94
2022-11-01T12:42:05.897Z,95812.94
2022-11-01T12:44:39.332Z,95817.81
2022-11-01T12:47:17.332Z,95818.28
2022-11-01T12:49:51.998Z,95809.13
2022-11-01T12:52:26.980Z,95809.69
2022-11-01T12:55:04.067Z,95816.66
2022-11-01T12:57:32.904Z,95816.41
2022-11-01T13:00:01.512Z,95815.94
2022-11-01T13:02:59.806Z,95815.78
2022-11-01T13:05:34.656Z,95814.31
2022-11-01T13:08:14.331Z,95816.75
2022-11-01T13:10:46.356Z,95803.72
2022-11-01T13:13:22.568Z,95813.41
2022-11-01T13:16:02.149Z,95807.31
2022-11-01T13:18:43.786Z,95812.75
2022-11-01T13:21:18.707Z,95815.75
2022-11-01T13:23:53.889Z,95816.44
2022-11-01T13:26:26.400Z,95814.78
2022-11-01T13:29:03.797Z,95818.03
2022-11-01T13:31:44.980Z,95815.56
2022-11-01T13:34:27.575Z,95806.59
2022-11-01T13:37:04.486Z,95807.66
2022-11-01T13:39:40.516Z,95810.28
2022-11-01T13:42:12.107Z,95812.44
2022-11-01T13:44:42.073Z,95807.44
2022-11-01T13:47:27.828Z,95806.69
2022-11-01T13:50:17.968Z,95813.44
2022-11-01T13:52:49.943Z,95818.19
2022-11-01T13:55:27.159Z,95815.56
2022-11-01T13:57:55.212Z,95818.00
2022-11-01T14:00:41.518Z,95819.19
2022-11-01T14:03:29.452Z,95821.53
2022-11-01T14:06:26.440Z,95817.63
2022-11-01T14:09:29.796Z,95823.19
2022-11-01T14:12:10.267Z,95821.69
2022-11-01T14:14:51.579Z,95815.97
2022-11-01T14:17:52.363Z,95815.59
2022-11-01T14:20:42.616Z,95811.41
2022-11-01T14:23:53.856Z,95815.53
2022-11-01T14:26:48.937Z,95818.00
2022-11-01T14:29:18.235Z,95813.56
2022-11-01T14:31:48.956Z,95818.50
2022-11-01T14:34:27.718Z,95819.78
2022-11-01T14:36:58.677Z,95819.13
2022-11-01T14:39:34.082Z,95819.28
2022-11-01T14:42:05.044Z,95826.16
2022-11-01T14:44:38.162Z,95824.66
2022-11-01T14:47:16.180Z,95831.88
2022-11-01T14:49:45.203Z,95827.75
2022-11-01T14:52:20.136Z,95830.75
2022-11-01T14:54:53.455Z,95831.88
2022-11-01T14:57:25.889Z,95833.81
2022-11-01T14:59:56.064Z,95825.94
2022-11-01T15:02:25.400Z,95826.94
2022-11-01T15:04:58.940Z,95834.66
2022-11-01T15:07:30.891Z,95827.31
2022-11-01T15:10:00.557Z,95826.94
2022-11-01T15:12:31.637Z,95829.56
2022-11-01T15:15:01.187Z,95818.97
2022-11-01T15:17:31.635Z,95833.59
2022-11-01T15:20:00.853Z,95835.56
2022-11-01T15:22:31.580Z,95845.22
2022-11-01T15:25:01.263Z,95836.56
2022-11-01T15:27:33.736Z,95835.41
2022-11-01T15:30:03.120Z,95842.31
2022-11-01T15:32:32.518Z,95843.06
2022-11-01T15:35:03.934Z,95846.50
2022-11-01T15:37:33.553Z,95841.47
2022-11-01T15:40:02.181Z,95846.34
2022-11-01T15:42:33.919Z,95855.06
2022-11-01T15:45:22.817Z,95849.19
2022-11-01T15:47:50.480Z,95849.06
2022-11-01T15:50:18.392Z,95851.03
2022-11-01T15:52:46.828Z,95855.22
2022-11-01T15:55:19.039Z,95851.75
2022-11-01T15:57:49.950Z,95860.84
2022-11-01T16:00:19.858Z,95854.16
2022-11-01T16:02:55.813Z,95856.94
2022-11-01T16:05:28.005Z,95858.22
2022-11-01T16:07:55.688Z,95860.31
2022-11-01T16:10:26.900Z,95861.53
2022-11-01T16:12:56.150Z,95856.56
2022-11-01T16:15:27.045Z,95868.50
2022-11-01T16:17:59.195Z,95866.69
2022-11-01T16:20:33.930Z,95875.53
2022-11-01T16:23:03.615Z,95869.22
2022-11-01T16:25:33.695Z,95876.22
2022-11-01T16:28:07.276Z,95879.13
2022-11-01T16:30:45.253Z,95881.91
2022-11-01T16:33:43.491Z,95888.13
2022-11-01T16:36:37.034Z,95887.16
2022-11-01T16:39:27.170Z,95890.19
2022-11-01T16:41:55.055Z,95888.91
2022-11-01T16:44:22.911Z,95893.59
2022-11-01T16:46:51.089Z,95895.56
2022-11-01T16:49:24.903Z,95905.16
2022-11-01T16:51:56.292Z,95906.94
2022-11-01T16:54:24.156Z,95907.94
2022-11-01T16:56:54.673Z,95907.09
2022-11-01T16:59:30.904Z,95910.56
2022-11-01T17:01:59.038Z,95917.75
2022-11-01T17:04:29.375Z,95915.88
2022-11-01T17:06:58.861Z,95930.94
2022-11-01T17:09:31.470Z,95933.72
2022-11-01T17:11:59.112Z,95940.97
2022-11-01T17:14:26.804Z,95933.28
2022-11-01T17:16:56.404Z,95934.00
2022-11-01T17:19:30.568Z,95941.44
2022-11-01T17:22:00.021Z,95947.75
2022-11-01T17:24:28.370Z,95947.13
2022-11-01T17:26:58.876Z,95944.22
2022-11-01T17:29:26.566Z,95945.72
2022-11-01T17:31:54.169Z,95949.09
2022-11-01T17:34:21.927Z,95956.53
2022-11-01T17:36:51.531Z,95953.44
2022-11-01T17:39:19.791Z,95956.00
2022-11-01T17:41:47.381Z,95959.06
2022-11-01T17:44:15.598Z,95961.97
2022-11-01T17:46:43.749Z,95965.38
2022-11-01T17:49:14.512Z,95960.13
2022-11-01T17:51:42.605Z,95959.97
2022-11-01T17:54:11.706Z,95961.09
2022-11-01T17:56:39.490Z,95957.56
2022-11-01T17:59:08.603Z,95965.38
2022-11-01T18:01:38.135Z,95959.97
2022-11-01T18:04:06.686Z,95968.00
2022-11-01T18:06:34.280Z,95960.69
2022-11-01T18:09:04.121Z,95964.75
2022-11-01T18:11:39.419Z,95965.94
2022-11-01T18:14:14.724Z,95966.06
2022-11-01T18:16:48.557Z,95966.94
2022-11-01T18:19:33.651Z,95967.38
2022-11-01T18:22:10.607Z,95965.59
2022-11-01T18:24:43.070Z,95956.56
2022-11-01T18:27:13.652Z,95962.22
2022-11-01T18:29:46.231Z,95965.34
2022-11-01T18:32:19.361Z,95963.69
2022-11-01T18:34:50.658Z,95968.69
2022-11-01T18:37:25.720Z,95969.81
2022-11-01T18:40:03.734Z,95963.78
2022-11-01T18:42:32.746Z,95964.56
2022-11-01T18:45:08.326Z,95976.56
2022-11-01T18:47:43.194Z,95977.13
2022-11-01T18:50:21.380Z,95967.75
2022-11-01T18:52:49.283Z,95966.00
2022-11-01T18:55:17.174Z,95971.66
2022-11-01T18:57:46.258Z,95973.66
2022-11-01T19:00:15.718Z,95971.88
2022-11-01T19:02:43.353Z,95976.00
2022-11-01T19:05:17.140Z,95977.34
2022-11-01T19:08:09.511Z,95974.72
2022-11-01T19:10:35.322Z,95968.41
2022-11-01T19:13:13.470Z,95981.50
2022-11-01T19:15:41.351Z,95979.34
2022-11-01T19:18:19.017Z,95974.25
2022-11-01T19:20:49.900Z,95975.41
2022-11-01T19:23:21.084Z,95972.16
2022-11-01T19:25:50.009Z,95980.22
2022-11-01T19:28:26.145Z,95973.91
2022-11-01T19:30:56.464Z,95975.06
2022-11-01T19:33:31.956Z,95970.47
2022-11-01T19:36:03.772Z,95965.94
2022-11-01T19:38:46.537Z,95957.97
2022-11-01T19:41:41.674Z,95959.75
2022-11-01T19:44:29.608Z,95955.84
2022-11-01T19:47:23.480Z,95952.69
2022-11-01T19:50:19.053Z,95955.22
2022-11-01T19:56:33.492Z,95962.22
2022-11-01T19:59:06.642Z,95957.91
2022-11-01T20:01:46.363Z,95964.13
2022-11-01T20:04:26.175Z,95969.78
2022-11-01T20:06:57.485Z,95970.53
2022-11-01T20:09:26.896Z,95981.28
2022-11-01T20:11:54.844Z,95983.00
2022-11-01T20:14:22.868Z,95985.50
2022-11-01T20:16:51.974Z,95986.06
2022-11-01T20:19:20.372Z,95980.47
2022-11-01T20:21:48.065Z,95987.63
2022-11-01T20:24:16.534Z,95993.84
2022-11-01T20:26:44.161Z,95988.25
2022-11-01T20:29:11.835Z,95998.31
2022-11-01T20:31:40.014Z,95994.28
2022-11-01T20:34:09.334Z,95992.78
2022-11-01T20:36:38.183Z,96001.88
2022-11-01T20:39:08.140Z,95998.28
2022-11-01T20:41:38.122Z,96001.44
2022-11-01T20:44:06.227Z,95999.50
2022-11-01T20:46:33.832Z,96007.06
2022-11-01T20:49:03.079Z,96006.69
2022-11-01T20:51:32.078Z,96004.06
2022-11-01T20:54:00.129Z,96011.50
2022-11-01T20:56:28.059Z,96003.66
2022-11-01T20:58:55.686Z,96006.03
2022-11-01T21:01:23.550Z,96003.00
2022-11-01T21:03:53.136Z,96012.69
2022-11-01T21:06:22.421Z,96008.81
2022-11-01T21:08:51.796Z,96008.69
2022-11-01T21:11:23.366Z,96014.06
2022-11-01T21:13:52.480Z,96014.78
2022-11-01T21:16:28.926Z,96008.56
2022-11-01T21:19:02.075Z,96010.63
2022-11-01T21:21:46.242Z,96012.41
2022-11-01T21:24:41.466Z,96004.97
2022-11-01T21:27:25.978Z,96015.97
2022-11-01T21:29:59.603Z,96018.22
2022-11-01T21:32:30.728Z,96014.47
2022-11-01T21:34:58.975Z,96011.59
2022-11-01T21:37:29.547Z,96011.31
2022-11-01T21:40:05.749Z,96012.69
2022-11-01T21:42:39.502Z,96013.34
2022-11-01T21:45:27.232Z,96009.25
2022-11-01T21:47:55.081Z,96006.50
2022-11-01T21:50:22.717Z,96012.28
2022-11-01T21:52:50.282Z,96016.00
2022-11-01T21:55:22.385Z,96016.00
2022-11-01T21:57:50.041Z,96009.38
2022-11-01T22:00:17.942Z,96004.41
2022-11-01T22:02:45.723Z,95998.78
2022-11-01T22:05:13.635Z,95995.91
2022-11-01T22:07:41.332Z,95993.81
2022-11-01T22:10:09.916Z,95993.94
2022-11-01T22:12:38.843Z,95995.75
2022-11-01T22:15:07.648Z,95993.28
2022-11-01T22:17:37.965Z,95999.34
2022-11-01T22:20:06.552Z,95989.66
2022-11-01T22:22:34.172Z,96001.94
2022-11-01T22:25:01.846Z,95995.72
2022-11-01T22:27:29.464Z,95998.63
2022-11-01T22:29:58.580Z,95995.19
2022-11-01T22:32:26.332Z,95998.09
2022-11-01T22:34:53.987Z,95993.25
2022-11-01T22:37:21.547Z,95987.72
2022-11-01T22:39:53.004Z,95990.78
2022-11-01T22:42:21.837Z,95998.34
2022-11-01T22:44:51.128Z,95996.81
2022-11-01T22:47:25.509Z,95996.28
2022-11-01T22:49:55.242Z,95997.25
2022-11-01T22:52:31.447Z,95997.94
2022-11-01T22:55:04.598Z,96003.00
2022-11-01T22:57:35.757Z,95996.97
2022-11-01T23:00:26.149Z,95996.28
2022-11-01T23:03:01.793Z,96000.53
2022-11-01T23:05:29.755Z,96000.00
2022-11-01T23:07:58.994Z,95997.63
2022-11-01T23:10:30.312Z,96006.00
2022-11-01T23:13:26.066Z,96000.13
2022-11-01T23:15:55.965Z,96003.81
2022-11-01T23:18:27.645Z,96005.34
2022-11-01T23:20:57.460Z,96000.94
2022-11-01T23:23:25.729Z,96007.69
2022-11-01T23:25:55.367Z,96013.31
2022-11-01T23:28:24.456Z,96016.06
2022-11-01T23:30:53.743Z,96014.56
2022-11-01T23:33:24.184Z,96016.50
2022-11-01T23:35:55.657Z,96008.09
2022-11-01T23:38:30.432Z,96014.84
2022-11-01T23:40:58.525Z,96010.28
2022-11-01T23:43:34.910Z,96012.66
2022-11-01T23:46:03.320Z,96010.59
2022-11-01T23:48:31.034Z,96019.53
2022-11-01T23:51:00.297Z,96017.84
2022-11-01T23:53:34.866Z,96015.53
2022-11-01T23:56:04.110Z,96010.41
2022-11-01T23:58:33.629Z,96014.84
